Easterwood Field College Station US
ICAO: KCLL
IATA: CLL
Category: Medium
Scheduled Services: Yes

Elevation: 320 ft
TransAlt. 18000 ft.

Airport Communications:
ATIS:126.85
HOUSTON CNTR:120.4
CTAF:118.5
GND:128.7
MONTGOMERY CO RDO:122.2
TWR:118.5
UNICOM:122.95

KCLL Zoom In..

If you have problems with the map follow the link
https://www.worldairports.se/pages/airport.php?
ICAO=KCLL

Runways:

(A) RW 04 length 5150 ft width 150 ft
---- / hdg 44

(B) RW 10 length 5158 ft width 150 ft
---- / hdg 103

(C) RW 16 length 7000 ft width 146 ft
---- / hdg 163

(D) RW 22 length 5150 ft width 150 ft
---- / hdg 224

(E) RW 28 length 5158 ft width 150 ft
---- / hdg 283

(F) RW 34 length 7000 ft width 146 ft
ILS 111.70 / hdg 343

Location; KCLL
Day. 21 / Time. 19.53 Zulu
* Altimeter: 30.41
* Temperature: 17° c. 62.6°f.
* Wind from: 110° Speed 08 kn.
Dewpoint: -02° c.
Visibility: 10 Statute Miles.
Clouds: Broken 11000 ft.

KCLL 211953Z 11008KT 10SM BKN110 17/M02 A3041 RMK AO2 SLP297 T01721017


Wind From 110°
Speed 08 kn.

 
 
jpsmedia worldairports.se 2020   terms of use